Sultan Abdul Aziz Shah International Airport
WMSA : now visible

Airfield :











YOU CAN JOIN US ON...

 
LOGIN :

Register | Disclaimer

   EN    FR    IT 

 









Legend :    VFR   Marginal VFR   IFR   Intensive IFR   Very Intensive IFR
Visi :
Ceiling :
>= 8 km
>= 3000ft
5 to 8 km
1000 to 3000 ft
1500m to 5 km
500 to 1000 ft
800 to 1500m
200 to 500 ft
< 800m
< 200 ft
Symbols :   Thunderstorms  Fog  Heavy snow  Heavy precipitations  Wind > 20 kt






- Airport Elevation : 90 ft
- IATA code : SZB


WMSA - Sultan Abdul Aziz Shah International

CURRENT METAR :
  • 250200Z VRB02KT 9999 FEW018 26/23 Q1012

EXPIRED METARs :
  • 250100Z 16003KT 9999 FEW010 25/23 Q1011
  • 250000Z 16004KT 120V210 8000 -RA FEW005 24/23 Q1011

TAF TAF WMSA
Valid from the 25 at 00:00 until the 26 at 00:00 UTC


242300Z 2500/2600 VRB03KT 9999 FEW023
TEMPO 2515/2518 5000 TSRA FEW017CB
WMFC FIR / Asia



MET'MAP, your aeronautical weather chart ! - Copyright ORBIFLY December 2007 - Disclaimer

ORBIFLY MET'MAP TEAM :

Programming & Development : Alexandra Zaïnal
Original concept : Baudouin d'Aumeries
Technical & hardware support : Manuel Goepfert
Assistance : Marc-Olivier Méhu




SOURCES & CREDITS :

   NOAA       Earth
Advisory